sensor_id;sensor_type;location;lat;lon;timestamp;P1;durP1;ratioP1;P2;durP2;ratioP2
31270;SDS011;17904;47.420;9.310;2023-01-04T00:03:28;3.08;;;2.15;;
31270;SDS011;17904;47.420;9.310;2023-01-04T00:05:58;2.50;;;1.98;;
31270;SDS011;17904;47.420;9.310;2023-01-04T00:08:25;2.08;;;1.88;;
31270;SDS011;17904;47.420;9.310;2023-01-04T00:10:58;2.38;;;1.98;;
31270;SDS011;17904;47.420;9.310;2023-01-04T00:13:30;3.03;;;2.22;;
31270;SDS011;17904;47.420;9.310;2023-01-04T00:15:58;2.25;;;1.90;;
31270;SDS011;17904;47.420;9.310;2023-01-04T00:18:34;2.35;;;1.98;;
31270;SDS011;17904;47.420;9.310;2023-01-04T00:21:11;3.53;;;2.05;;
31270;SDS011;17904;47.420;9.310;2023-01-04T00:23:41;2.85;;;2.25;;
31270;SDS011;17904;47.420;9.310;2023-01-04T00:26:09;2.08;;;1.88;;
31270;SDS011;17904;47.420;9.310;2023-01-04T00:28:44;2.17;;;1.85;;
31270;SDS011;17904;47.420;9.310;2023-01-04T00:31:19;5.20;;;2.10;;
31270;SDS011;17904;47.420;9.310;2023-01-04T00:33:47;3.42;;;1.65;;
31270;SDS011;17904;47.420;9.310;2023-01-04T00:36:14;2.92;;;1.48;;
31270;SDS011;17904;47.420;9.310;2023-01-04T00:38:41;3.00;;;2.33;;
31270;SDS011;17904;47.420;9.310;2023-01-04T00:41:08;1.60;;;1.50;;
31270;SDS011;17904;47.420;9.310;2023-01-04T00:43:56;2.30;;;1.58;;
31270;SDS011;17904;47.420;9.310;2023-01-04T00:46:24;1.75;;;1.20;;
31270;SDS011;17904;47.420;9.310;2023-01-04T00:48:51;1.83;;;1.63;;
31270;SDS011;17904;47.420;9.310;2023-01-04T00:51:26;2.45;;;1.77;;
31270;SDS011;17904;47.420;9.310;2023-01-04T00:53:53;1.95;;;1.83;;
31270;SDS011;17904;47.420;9.310;2023-01-04T00:56:20;3.38;;;1.67;;
31270;SDS011;17904;47.420;9.310;2023-01-04T00:58:47;1.45;;;1.25;;
31270;SDS011;17904;47.420;9.310;2023-01-04T01:01:14;1.90;;;1.20;;
31270;SDS011;17904;47.420;9.310;2023-01-04T01:03:41;1.23;;;1.10;;
31270;SDS011;17904;47.420;9.310;2023-01-04T01:06:09;2.47;;;1.50;;
31270;SDS011;17904;47.420;9.310;2023-01-04T01:08:37;1.77;;;1.38;;
31270;SDS011;17904;47.420;9.310;2023-01-04T01:11:06;2.40;;;1.90;;
31270;SDS011;17904;47.420;9.310;2023-01-04T01:13:34;2.17;;;1.40;;
31270;SDS011;17904;47.420;9.310;2023-01-04T01:16:05;2.38;;;1.73;;
31270;SDS011;17904;47.420;9.310;2023-01-04T01:18:35;2.05;;;1.35;;
31270;SDS011;17904;47.420;9.310;2023-01-04T01:21:04;1.20;;;1.10;;
31270;SDS011;17904;47.420;9.310;2023-01-04T01:23:32;1.42;;;1.23;;
31270;SDS011;17904;47.420;9.310;2023-01-04T01:25:59;1.98;;;1.58;;
31270;SDS011;17904;47.420;9.310;2023-01-04T01:28:27;3.47;;;1.48;;
31270;SDS011;17904;47.420;9.310;2023-01-04T01:30:54;3.50;;;1.88;;
31270;SDS011;17904;47.420;9.310;2023-01-04T01:33:22;1.42;;;1.33;;
31270;SDS011;17904;47.420;9.310;2023-01-04T01:35:48;1.50;;;1.40;;
31270;SDS011;17904;47.420;9.310;2023-01-04T01:38:15;1.70;;;1.60;;
31270;SDS011;17904;47.420;9.310;2023-01-04T01:43:20;1.85;;;1.60;;
31270;SDS011;17904;47.420;9.310;2023-01-04T01:45:50;1.20;;;1.10;;
31270;SDS011;17904;47.420;9.310;2023-01-04T01:48:23;1.95;;;1.50;;
31270;SDS011;17904;47.420;9.310;2023-01-04T01:51:00;3.35;;;1.33;;
31270;SDS011;17904;47.420;9.310;2023-01-04T01:53:31;1.50;;;1.35;;
31270;SDS011;17904;47.420;9.310;2023-01-04T01:56:00;2.17;;;1.45;;
31270;SDS011;17904;47.420;9.310;2023-01-04T01:58:31;1.92;;;1.55;;
31270;SDS011;17904;47.420;9.310;2023-01-04T02:01:01;2.08;;;1.58;;
31270;SDS011;17904;47.420;9.310;2023-01-04T02:03:31;1.52;;;1.42;;
31270;SDS011;17904;47.420;9.310;2023-01-04T02:06:01;1.25;;;1.15;;
31270;SDS011;17904;47.420;9.310;2023-01-04T02:08:31;1.20;;;1.05;;
31270;SDS011;17904;47.420;9.310;2023-01-04T02:10:58;2.60;;;1.67;;
31270;SDS011;17904;47.420;9.310;2023-01-04T02:13:26;1.45;;;1.35;;
31270;SDS011;17904;47.420;9.310;2023-01-04T02:16:21;1.50;;;1.40;;
31270;SDS011;17904;47.420;9.310;2023-01-04T02:21:59;2.38;;;1.20;;
31270;SDS011;17904;47.420;9.310;2023-01-04T02:24:45;1.52;;;1.27;;
31270;SDS011;17904;47.420;9.310;2023-01-04T02:27:42;1.50;;;1.20;;
31270;SDS011;17904;47.420;9.310;2023-01-04T02:44:18;1.30;;;1.20;;
31270;SDS011;17904;47.420;9.310;2023-01-04T02:50:29;1.52;;;1.20;;
31270;SDS011;17904;47.420;9.310;2023-01-04T02:53:09;1.80;;;1.50;;
31270;SDS011;17904;47.420;9.310;2023-01-04T02:55:59;2.60;;;1.25;;
31270;SDS011;17904;47.420;9.310;2023-01-04T03:08:14;2.00;;;1.42;;
31270;SDS011;17904;47.420;9.310;2023-01-04T03:10:48;1.48;;;1.38;;
31270;SDS011;17904;47.420;9.310;2023-01-04T03:13:30;1.55;;;1.23;;
31270;SDS011;17904;47.420;9.310;2023-01-04T03:16:14;2.70;;;2.47;;
31270;SDS011;17904;47.420;9.310;2023-01-04T03:18:49;2.17;;;1.60;;
31270;SDS011;17904;47.420;9.310;2023-01-04T03:21:18;3.40;;;1.38;;
31270;SDS011;17904;47.420;9.310;2023-01-04T03:23:48;2.13;;;1.40;;
31270;SDS011;17904;47.420;9.310;2023-01-04T03:26:39;1.25;;;1.15;;
31270;SDS011;17904;47.420;9.310;2023-01-04T03:29:35;1.58;;;1.20;;
31270;SDS011;17904;47.420;9.310;2023-01-04T03:32:30;1.30;;;1.20;;
31270;SDS011;17904;47.420;9.310;2023-01-04T03:35:26;1.92;;;1.55;;
31270;SDS011;17904;47.420;9.310;2023-01-04T03:38:05;1.63;;;1.38;;
31270;SDS011;17904;47.420;9.310;2023-01-04T03:40:56;1.38;;;1.08;;
31270;SDS011;17904;47.420;9.310;2023-01-04T03:43:53;1.95;;;1.40;;
31270;SDS011;17904;47.420;9.310;2023-01-04T03:47:02;1.10;;;1.00;;
31270;SDS011;17904;47.420;9.310;2023-01-04T03:49:57;2.28;;;1.40;;
31270;SDS011;17904;47.420;9.310;2023-01-04T03:52:34;1.48;;;1.38;;
31270;SDS011;17904;47.420;9.310;2023-01-04T03:55:04;1.77;;;1.40;;
31270;SDS011;17904;47.420;9.310;2023-01-04T03:57:33;1.45;;;1.10;;
31270;SDS011;17904;47.420;9.310;2023-01-04T04:00:04;1.52;;;1.42;;
31270;SDS011;17904;47.420;9.310;2023-01-04T04:02:35;1.75;;;1.17;;
31270;SDS011;17904;47.420;9.310;2023-01-04T04:05:02;2.72;;;1.70;;
31270;SDS011;17904;47.420;9.310;2023-01-04T04:07:48;2.60;;;1.52;;
31270;SDS011;17904;47.420;9.310;2023-01-04T04:10:34;2.28;;;1.30;;
31270;SDS011;17904;47.420;9.310;2023-01-04T04:13:01;2.85;;;1.85;;
31270;SDS011;17904;47.420;9.310;2023-01-04T04:17:55;2.15;;;1.98;;
31270;SDS011;17904;47.420;9.310;2023-01-04T04:20:21;2.30;;;1.50;;
31270;SDS011;17904;47.420;9.310;2023-01-04T04:22:48;2.08;;;1.80;;
31270;SDS011;17904;47.420;9.310;2023-01-04T04:25:15;3.10;;;1.80;;
31270;SDS011;17904;47.420;9.310;2023-01-04T04:27:42;2.03;;;1.60;;
31270;SDS011;17904;47.420;9.310;2023-01-04T04:32:35;1.42;;;1.30;;
31270;SDS011;17904;47.420;9.310;2023-01-04T04:37:29;2.50;;;1.83;;
31270;SDS011;17904;47.420;9.310;2023-01-04T04:39:57;1.75;;;1.65;;
31270;SDS011;17904;47.420;9.310;2023-01-04T04:42:24;1.90;;;1.65;;
31270;SDS011;17904;47.420;9.310;2023-01-04T04:47:17;2.70;;;2.10;;
31270;SDS011;17904;47.420;9.310;2023-01-04T04:52:11;2.72;;;2.50;;
31270;SDS011;17904;47.420;9.310;2023-01-04T04:57:04;2.92;;;2.35;;
31270;SDS011;17904;47.420;9.310;2023-01-04T04:59:31;5.03;;;2.70;;
31270;SDS011;17904;47.420;9.310;2023-01-04T05:01:58;2.03;;;1.85;;
31270;SDS011;17904;47.420;9.310;2023-01-04T05:04:25;2.40;;;2.08;;
31270;SDS011;17904;47.420;9.310;2023-01-04T05:06:52;2.40;;;2.00;;
31270;SDS011;17904;47.420;9.310;2023-01-04T05:11:45;2.47;;;1.95;;
31270;SDS011;17904;47.420;9.310;2023-01-04T05:14:31;1.70;;;1.55;;
31270;SDS011;17904;47.420;9.310;2023-01-04T05:19:24;2.35;;;2.05;;
31270;SDS011;17904;47.420;9.310;2023-01-04T05:21:51;1.83;;;1.60;;
31270;SDS011;17904;47.420;9.310;2023-01-04T05:26:45;1.85;;;1.73;;
31270;SDS011;17904;47.420;9.310;2023-01-04T05:29:11;2.22;;;1.80;;
31270;SDS011;17904;47.420;9.310;2023-01-04T05:31:58;1.77;;;1.58;;
31270;SDS011;17904;47.420;9.310;2023-01-04T05:34:25;2.45;;;2.00;;
31270;SDS011;17904;47.420;9.310;2023-01-04T05:39:18;1.90;;;1.60;;
31270;SDS011;17904;47.420;9.310;2023-01-04T05:44:30;3.03;;;1.80;;
31270;SDS011;17904;47.420;9.310;2023-01-04T05:46:57;1.88;;;1.63;;
31270;SDS011;17904;47.420;9.310;2023-01-04T05:51:50;2.45;;;1.70;;
31270;SDS011;17904;47.420;9.310;2023-01-04T05:56:47;2.60;;;1.63;;
31270;SDS011;17904;47.420;9.310;2023-01-04T06:01:41;2.72;;;2.10;;
31270;SDS011;17904;47.420;9.310;2023-01-04T06:04:08;3.88;;;2.08;;
31270;SDS011;17904;47.420;9.310;2023-01-04T06:06:35;8.45;;;2.88;;
31270;SDS011;17904;47.420;9.310;2023-01-04T06:11:28;4.43;;;2.97;;
31270;SDS011;17904;47.420;9.310;2023-01-04T06:16:21;3.45;;;3.08;;
31270;SDS011;17904;47.420;9.310;2023-01-04T06:18:48;5.03;;;4.22;;
31270;SDS011;17904;47.420;9.310;2023-01-04T06:23:42;6.18;;;4.13;;
31270;SDS011;17904;47.420;9.310;2023-01-04T06:26:09;6.63;;;4.63;;
31270;SDS011;17904;47.420;9.310;2023-01-04T06:31:07;4.43;;;3.58;;
31270;SDS011;17904;47.420;9.310;2023-01-04T06:33:35;7.43;;;4.40;;
31270;SDS011;17904;47.420;9.310;2023-01-04T06:36:03;5.55;;;4.07;;
31270;SDS011;17904;47.420;9.310;2023-01-04T06:38:31;6.85;;;4.40;;
31270;SDS011;17904;47.420;9.310;2023-01-04T06:40:58;5.05;;;4.22;;
31270;SDS011;17904;47.420;9.310;2023-01-04T06:43:25;5.93;;;3.60;;
31270;SDS011;17904;47.420;9.310;2023-01-04T06:45:52;4.47;;;3.40;;
31270;SDS011;17904;47.420;9.310;2023-01-04T06:48:19;5.15;;;3.50;;
31270;SDS011;17904;47.420;9.310;2023-01-04T06:50:46;5.22;;;3.83;;
31270;SDS011;17904;47.420;9.310;2023-01-04T06:53:13;5.43;;;3.20;;
31270;SDS011;17904;47.420;9.310;2023-01-04T06:55:41;7.63;;;4.13;;
31270;SDS011;17904;47.420;9.310;2023-01-04T06:58:09;4.50;;;3.33;;
31270;SDS011;17904;47.420;9.310;2023-01-04T07:00:36;4.75;;;3.33;;
31270;SDS011;17904;47.420;9.310;2023-01-04T07:03:03;4.85;;;3.55;;
31270;SDS011;17904;47.420;9.310;2023-01-04T07:05:41;4.05;;;3.15;;
31270;SDS011;17904;47.420;9.310;2023-01-04T07:08:08;4.78;;;3.70;;
31270;SDS011;17904;47.420;9.310;2023-01-04T07:10:36;5.93;;;3.97;;
31270;SDS011;17904;47.420;9.310;2023-01-04T07:13:03;4.75;;;4.28;;
31270;SDS011;17904;47.420;9.310;2023-01-04T07:15:31;5.18;;;3.92;;
31270;SDS011;17904;47.420;9.310;2023-01-04T07:18:05;4.68;;;3.55;;
31270;SDS011;17904;47.420;9.310;2023-01-04T07:20:32;4.47;;;3.42;;
31270;SDS011;17904;47.420;9.310;2023-01-04T07:22:58;4.72;;;3.67;;
31270;SDS011;17904;47.420;9.310;2023-01-04T07:25:25;3.47;;;2.95;;
31270;SDS011;17904;47.420;9.310;2023-01-04T07:27:52;6.32;;;5.63;;
31270;SDS011;17904;47.420;9.310;2023-01-04T07:30:20;5.22;;;3.08;;
31270;SDS011;17904;47.420;9.310;2023-01-04T07:32:48;4.43;;;3.47;;
31270;SDS011;17904;47.420;9.310;2023-01-04T07:35:16;6.03;;;2.97;;
31270;SDS011;17904;47.420;9.310;2023-01-04T07:37:43;8.73;;;4.05;;
31270;SDS011;17904;47.420;9.310;2023-01-04T07:40:10;5.38;;;4.40;;
31270;SDS011;17904;47.420;9.310;2023-01-04T07:42:37;5.90;;;4.60;;
31270;SDS011;17904;47.420;9.310;2023-01-04T07:45:04;10.15;;;4.03;;
31270;SDS011;17904;47.420;9.310;2023-01-04T07:47:32;5.20;;;3.33;;
31270;SDS011;17904;47.420;9.310;2023-01-04T07:49:59;4.05;;;2.85;;
31270;SDS011;17904;47.420;9.310;2023-01-04T07:54:52;8.25;;;3.97;;
31270;SDS011;17904;47.420;9.310;2023-01-04T07:57:19;5.30;;;3.70;;
31270;SDS011;17904;47.420;9.310;2023-01-04T07:59:46;5.22;;;3.38;;
31270;SDS011;17904;47.420;9.310;2023-01-04T08:04:39;3.80;;;2.80;;
